Time;durP1;ratioP1;P1;durP2;ratioP2;P2;SDS_P1;SDS_P2;PMS_P1;PMS_P2;Temp;Humidity;BMP_temperature;BMP_pressure;BME280_temperature;BME280_humidity;BME280_pressure;Samples;Min_cycle;Max_cycle;Signal;HPM_P1;HPM_P2
2023/08/22 00:01:25;;;;;;;2.80;1.05;;;;;;;;;;5109420;27;41675;-70
2023/08/22 00:03:56;;;;;;;2.42;1.00;;;;;;;;;;5113178;27;42772;-70
2023/08/22 00:06:25;;;;;;;2.25;1.23;;;;;;;;;;5119355;27;41321;-71
2023/08/22 00:08:53;;;;;;;2.03;0.90;;;;;;;;;;5127903;27;42928;-70
2023/08/22 00:11:21;;;;;;;1.77;0.80;;;;;;;;;;5117053;27;39858;-70
2023/08/22 00:13:51;;;;;;;1.45;1.08;;;;;;;;;;5117697;27;41202;-70
2023/08/22 00:16:19;;;;;;;1.35;0.90;;;;;;;;;;5125935;27;43209;-70
2023/08/22 00:18:47;;;;;;;1.95;0.90;;;;;;;;;;5119101;27;40857;-70
2023/08/22 00:21:15;;;;;;;1.08;0.70;;;;;;;;;;5107750;27;42663;-70
2023/08/22 00:23:43;;;;;;;1.90;0.80;;;;;;;;;;5107190;27;42660;-70
2023/08/22 00:26:11;;;;;;;1.10;0.70;;;;;;;;;;5114094;27;41417;-70
2023/08/22 00:28:39;;;;;;;0.70;0.70;;;;;;;;;;5116282;27;41264;-71
2023/08/22 00:31:08;;;;;;;1.63;1.00;;;;;;;;;;5107450;28;41063;-71
2023/08/22 00:33:36;;;;;;;1.20;0.88;;;;;;;;;;5104434;28;41023;-71
2023/08/22 00:36:04;;;;;;;2.20;1.00;;;;;;;;;;5107261;28;42864;-71
2023/08/22 00:38:32;;;;;;;1.15;0.80;;;;;;;;;;5105210;28;38854;-71
2023/08/22 00:41:00;;;;;;;1.35;0.70;;;;;;;;;;5107675;28;42163;-71
2023/08/22 00:43:29;;;;;;;1.05;0.70;;;;;;;;;;5106327;28;43044;-71
2023/08/22 00:45:57;;;;;;;0.95;0.75;;;;;;;;;;5105498;28;40466;-71
2023/08/22 00:48:26;;;;;;;2.30;0.80;;;;;;;;;;5107382;28;41411;-70
2023/08/22 00:50:54;;;;;;;0.73;0.63;;;;;;;;;;5107480;28;42127;-70
2023/08/22 00:53:22;;;;;;;1.10;0.80;;;;;;;;;;5105153;28;40251;-70
2023/08/22 00:55:50;;;;;;;1.15;0.98;;;;;;;;;;5106895;28;42918;-70
2023/08/22 00:58:18;;;;;;;2.15;0.80;;;;;;;;;;5106986;28;41162;-70
2023/08/22 01:00:46;;;;;;;0.85;0.85;;;;;;;;;;5106146;28;41701;-70
2023/08/22 01:03:15;;;;;;;1.27;0.77;;;;;;;;;;5106095;27;40375;-70
2023/08/22 01:05:49;;;;;;;1.67;0.70;;;;;;;;;;5104113;28;41426;-70
2023/08/22 01:08:18;;;;;;;0.70;0.70;;;;;;;;;;5105882;28;43079;-70
2023/08/22 01:10:47;;;;;;;0.80;0.70;;;;;;;;;;5107065;28;42229;-70
2023/08/22 01:13:18;;;;;;;1.92;0.70;;;;;;;;;;5107618;27;39927;-70
2023/08/22 01:15:46;;;;;;;2.03;0.70;;;;;;;;;;5116407;27;42175;-70
2023/08/22 01:18:15;;;;;;;1.25;0.60;;;;;;;;;;5112679;27;40227;-70
2023/08/22 01:20:43;;;;;;;1.25;0.70;;;;;;;;;;5109661;28;42558;-70
2023/08/22 01:23:12;;;;;;;0.65;0.60;;;;;;;;;;5109776;28;43050;-70
2023/08/22 01:25:40;;;;;;;0.70;0.70;;;;;;;;;;5110036;28;41303;-70
2023/08/22 01:28:11;;;;;;;1.27;0.98;;;;;;;;;;5115151;27;41629;-70
2023/08/22 01:30:42;;;;;;;1.23;0.60;;;;;;;;;;5112682;27;43230;-70
2023/08/22 01:33:12;;;;;;;1.27;0.60;;;;;;;;;;5113298;27;41322;-70
2023/08/22 01:35:40;;;;;;;0.73;0.68;;;;;;;;;;5107860;27;41602;-70
2023/08/22 01:38:08;;;;;;;2.78;0.80;;;;;;;;;;5110213;28;39950;-70
2023/08/22 01:40:37;;;;;;;0.88;0.85;;;;;;;;;;5116285;27;42218;-70
2023/08/22 01:43:06;;;;;;;0.65;0.65;;;;;;;;;;5109974;27;41708;-70
2023/08/22 01:45:34;;;;;;;1.55;0.60;;;;;;;;;;5113023;27;40434;-71
2023/08/22 01:48:01;;;;;;;1.40;0.90;;;;;;;;;;5113089;27;41905;-71
2023/08/22 01:50:30;;;;;;;0.77;0.60;;;;;;;;;;5108834;28;42079;-71
2023/08/22 01:52:58;;;;;;;0.80;0.70;;;;;;;;;;5109428;28;41016;-71
2023/08/22 01:55:26;;;;;;;0.85;0.60;;;;;;;;;;5107958;28;41418;-71
2023/08/22 01:57:55;;;;;;;1.27;0.85;;;;;;;;;;5109220;28;40545;-71
2023/08/22 02:00:23;;;;;;;1.10;0.70;;;;;;;;;;5107635;27;41146;-71
2023/08/22 02:02:51;;;;;;;0.73;0.73;;;;;;;;;;5108686;28;42999;-71
2023/08/22 02:05:19;;;;;;;0.40;0.40;;;;;;;;;;5107099;28;40237;-71
2023/08/22 02:07:47;;;;;;;1.20;0.50;;;;;;;;;;5107370;28;40878;-71
2023/08/22 02:10:15;;;;;;;1.05;0.60;;;;;;;;;;5105928;28;42884;-70
2023/08/22 02:12:43;;;;;;;1.83;0.93;;;;;;;;;;5107558;28;41435;-70
2023/08/22 02:15:13;;;;;;;0.82;0.80;;;;;;;;;;5106711;27;41182;-70
2023/08/22 02:17:41;;;;;;;1.25;0.75;;;;;;;;;;5107083;28;42784;-70
2023/08/22 02:20:10;;;;;;;2.25;0.70;;;;;;;;;;5109541;27;42536;-70
2023/08/22 02:22:41;;;;;;;0.93;0.60;;;;;;;;;;5109051;28;41553;-70
2023/08/22 02:25:09;;;;;;;1.48;0.77;;;;;;;;;;5106075;27;39594;-71
2023/08/22 02:27:38;;;;;;;0.75;0.50;;;;;;;;;;5108459;28;42593;-71
2023/08/22 02:30:07;;;;;;;0.82;0.77;;;;;;;;;;5109481;28;43544;-70
2023/08/22 02:32:36;;;;;;;1.23;0.70;;;;;;;;;;5107978;28;40387;-70
2023/08/22 02:35:06;;;;;;;1.30;0.60;;;;;;;;;;5106971;28;40790;-70
2023/08/22 02:37:34;;;;;;;1.13;0.65;;;;;;;;;;5108311;27;42869;-70
2023/08/22 02:40:06;;;;;;;0.95;0.75;;;;;;;;;;5109236;28;40535;-70
2023/08/22 02:42:34;;;;;;;0.98;0.70;;;;;;;;;;5107785;28;42533;-70
2023/08/22 02:45:02;;;;;;;0.95;0.60;;;;;;;;;;5107804;28;38977;-70
2023/08/22 02:47:31;;;;;;;0.82;0.57;;;;;;;;;;5106005;28;40165;-71
2023/08/22 02:50:00;;;;;;;0.70;0.70;;;;;;;;;;5107738;28;40918;-70
2023/08/22 02:52:29;;;;;;;0.68;0.60;;;;;;;;;;5106625;27;38877;-71
2023/08/22 02:54:57;;;;;;;0.60;0.60;;;;;;;;;;5107888;28;40240;-71
2023/08/22 02:57:25;;;;;;;1.33;0.70;;;;;;;;;;5108319;28;43261;-71
2023/08/22 02:59:53;;;;;;;0.82;0.60;;;;;;;;;;5106425;28;38952;-71
2023/08/22 03:02:21;;;;;;;1.60;0.70;;;;;;;;;;5091764;28;41724;-71
2023/08/22 03:04:53;;;;;;;1.35;0.90;;;;;;;;;;5087135;28;39748;-71
2023/08/22 03:07:22;;;;;;;1.08;0.65;;;;;;;;;;5094936;28;42298;-71
2023/08/22 03:09:50;;;;;;;0.93;0.70;;;;;;;;;;5107398;28;41981;-70
2023/08/22 03:12:20;;;;;;;0.80;0.60;;;;;;;;;;5106790;28;38951;-71
2023/08/22 03:14:48;;;;;;;0.77;0.77;;;;;;;;;;5106139;28;41351;-70
2023/08/22 03:17:16;;;;;;;1.17;0.80;;;;;;;;;;5107205;27;41063;-70
2023/08/22 03:19:45;;;;;;;3.35;0.70;;;;;;;;;;5107258;27;38881;-71
2023/08/22 03:22:14;;;;;;;0.70;0.50;;;;;;;;;;5105958;28;40454;-69
2023/08/22 03:24:43;;;;;;;1.25;0.68;;;;;;;;;;5107124;28;41023;-71
2023/08/22 03:27:12;;;;;;;1.95;0.63;;;;;;;;;;5106903;27;40210;-70
2023/08/22 03:29:41;;;;;;;1.88;0.93;;;;;;;;;;5106171;27;40656;-71
2023/08/22 03:32:09;;;;;;;0.52;0.52;;;;;;;;;;5107904;27;40434;-71
2023/08/22 03:34:37;;;;;;;1.05;0.60;;;;;;;;;;5105767;28;40235;-71
2023/08/22 03:37:06;;;;;;;1.05;0.60;;;;;;;;;;5106623;28;41736;-71
2023/08/22 03:39:34;;;;;;;1.42;1.05;;;;;;;;;;5106146;28;39062;-71
2023/08/22 03:42:04;;;;;;;1.27;0.90;;;;;;;;;;5106688;27;41505;-71
2023/08/22 03:44:32;;;;;;;0.85;0.70;;;;;;;;;;5106897;27;41775;-71
2023/08/22 03:47:00;;;;;;;0.88;0.88;;;;;;;;;;5106764;28;42311;-71
2023/08/22 03:49:36;;;;;;;0.75;0.55;;;;;;;;;;5105607;27;40429;-71
2023/08/22 03:52:04;;;;;;;0.88;0.70;;;;;;;;;;5116913;27;40240;-70
2023/08/22 03:54:33;;;;;;;0.68;0.50;;;;;;;;;;5117574;27;41618;-70
2023/08/22 03:57:01;;;;;;;2.15;0.50;;;;;;;;;;5116586;27;41866;-70
2023/08/22 03:59:30;;;;;;;1.48;0.60;;;;;;;;;;5120620;27;39862;-70
2023/08/22 04:01:58;;;;;;;0.47;0.45;;;;;;;;;;5106826;27;41039;-70
2023/08/22 04:04:26;;;;;;;0.82;0.70;;;;;;;;;;5106775;27;42262;-71
2023/08/22 04:06:54;;;;;;;0.95;0.70;;;;;;;;;;5114473;27;39145;-70
2023/08/22 04:09:23;;;;;;;0.50;0.50;;;;;;;;;;5108263;27;41316;-71
2023/08/22 04:11:51;;;;;;;0.88;0.50;;;;;;;;;;5107848;27;38972;-70
2023/08/22 04:14:18;;;;;;;0.50;0.50;;;;;;;;;;5118813;27;41702;-70
2023/08/22 04:16:48;;;;;;;4.95;0.90;;;;;;;;;;5125927;27;41116;-70
2023/08/22 04:19:17;;;;;;;1.10;0.57;;;;;;;;;;5116859;27;38886;-70
2023/08/22 04:21:44;;;;;;;2.35;0.70;;;;;;;;;;5110301;27;41311;-70
2023/08/22 04:24:12;;;;;;;0.50;0.50;;;;;;;;;;5107017;28;42705;-70
2023/08/22 04:26:41;;;;;;;1.20;0.52;;;;;;;;;;5107055;28;40383;-70
2023/08/22 04:29:09;;;;;;;0.60;0.60;;;;;;;;;;5106347;27;40129;-69
2023/08/22 04:31:37;;;;;;;0.88;0.60;;;;;;;;;;5112241;27;40085;-70
2023/08/22 04:34:07;;;;;;;1.08;0.98;;;;;;;;;;5110386;27;40361;-70
2023/08/22 04:36:42;;;;;;;4.82;1.08;;;;;;;;;;5116617;27;40621;-72
2023/08/22 04:39:11;;;;;;;0.95;0.60;;;;;;;;;;5106293;28;41413;-73
2023/08/22 04:41:39;;;;;;;7.55;4.22;;;;;;;;;;5105465;28;40199;-72
2023/08/22 04:44:19;;;;;;;9.38;4.60;;;;;;;;;;5105424;28;42201;-78
2023/08/22 04:46:47;;;;;;;5.20;3.72;;;;;;;;;;5105424;27;40589;-70
2023/08/22 04:49:17;;;;;;;4.28;2.75;;;;;;;;;;5108966;27;40295;-72
2023/08/22 04:51:45;;;;;;;6.80;3.13;;;;;;;;;;5110532;28;43057;-68
2023/08/22 04:54:13;;;;;;;11.50;2.40;;;;;;;;;;5089316;28;40030;-68
2023/08/22 04:56:40;;;;;;;8.38;2.70;;;;;;;;;;5088201;28;40600;-68
2023/08/22 04:59:08;;;;;;;23.58;3.83;;;;;;;;;;5089800;28;41315;-67
2023/08/22 05:01:36;;;;;;;27.10;5.20;;;;;;;;;;5108303;27;41344;-67
2023/08/22 05:04:05;;;;;;;24.90;6.25;;;;;;;;;;5110716;27;42024;-68
2023/08/22 05:06:34;;;;;;;8.82;5.93;;;;;;;;;;5115745;27;41236;-67
2023/08/22 05:09:04;;;;;;;12.30;6.40;;;;;;;;;;5108131;28;40143;-68
2023/08/22 05:11:35;;;;;;;14.57;7.25;;;;;;;;;;5105224;28;41759;-68
2023/08/22 05:14:04;;;;;;;7.97;6.43;;;;;;;;;;5108671;28;40406;-68
2023/08/22 05:16:32;;;;;;;12.68;6.40;;;;;;;;;;5107842;28;41965;-68
2023/08/22 05:19:01;;;;;;;20.10;7.07;;;;;;;;;;5109147;27;39072;-67
2023/08/22 05:21:30;;;;;;;24.70;6.95;;;;;;;;;;5107523;28;41149;-67
2023/08/22 05:24:00;;;;;;;12.63;6.95;;;;;;;;;;5108782;28;40631;-70
2023/08/22 05:26:29;;;;;;;13.45;7.57;;;;;;;;;;5110516;28;38968;-68
2023/08/22 05:29:00;;;;;;;10.10;6.90;;;;;;;;;;5110317;27;41387;-67
2023/08/22 05:31:29;;;;;;;15.40;7.53;;;;;;;;;;5114993;27;42474;-67
2023/08/22 05:33:57;;;;;;;18.92;6.88;;;;;;;;;;5124176;27;41362;-67
2023/08/22 05:36:25;;;;;;;8.93;6.88;;;;;;;;;;5129608;27;40774;-67
2023/08/22 05:38:53;;;;;;;15.07;7.57;;;;;;;;;;5129241;27;39092;-68
2023/08/22 05:41:23;;;;;;;10.43;7.82;;;;;;;;;;5128201;27;41387;-67
2023/08/22 05:43:52;;;;;;;14.27;7.97;;;;;;;;;;5129079;27;41836;-67
2023/08/22 05:46:20;;;;;;;16.00;8.63;;;;;;;;;;5108599;27;39583;-68
2023/08/22 05:48:48;;;;;;;36.17;10.27;;;;;;;;;;5108635;28;41843;-67
2023/08/22 05:51:17;;;;;;;70.28;14.80;;;;;;;;;;5108353;28;40835;-67
2023/08/22 05:53:45;;;;;;;76.90;13.43;;;;;;;;;;5109150;28;40934;-67
2023/08/22 05:56:13;;;;;;;35.90;10.02;;;;;;;;;;5109241;28;41726;-67
2023/08/22 05:58:43;;;;;;;21.00;9.70;;;;;;;;;;5107553;27;40198;-67
2023/08/22 06:01:11;;;;;;;45.50;11.90;;;;;;;;;;5108769;28;41603;-67
2023/08/22 06:03:39;;;;;;;28.77;10.85;;;;;;;;;;5106942;28;40618;-67
2023/08/22 06:06:09;;;;;;;26.40;9.98;;;;;;;;;;5108129;28;39061;-66
2023/08/22 06:08:37;;;;;;;20.55;9.70;;;;;;;;;;5108801;28;41321;-67
2023/08/22 06:11:05;;;;;;;16.25;9.10;;;;;;;;;;5109191;28;42999;-68
2023/08/22 06:13:33;;;;;;;23.05;8.90;;;;;;;;;;5142505;27;39058;-68
2023/08/22 06:16:02;;;;;;;17.73;8.98;;;;;;;;;;5128302;27;41413;-68
2023/08/22 06:18:31;;;;;;;16.75;9.13;;;;;;;;;;5109134;27;40777;-68
2023/08/22 06:21:00;;;;;;;23.42;9.98;;;;;;;;;;5109380;27;41466;-68
2023/08/22 06:23:28;;;;;;;15.77;8.98;;;;;;;;;;5105749;28;41894;-68
2023/08/22 06:25:56;;;;;;;26.88;10.27;;;;;;;;;;5109190;27;40517;-68
2023/08/22 06:28:24;;;;;;;19.00;8.63;;;;;;;;;;5107810;27;40525;-69
2023/08/22 06:30:54;;;;;;;28.17;10.20;;;;;;;;;;5108883;27;43279;-69
2023/08/22 06:33:23;;;;;;;22.48;8.73;;;;;;;;;;5107734;28;40449;-68
2023/08/22 06:35:53;;;;;;;31.98;10.35;;;;;;;;;;5122831;27;41821;-71
2023/08/22 06:38:21;;;;;;;32.22;9.50;;;;;;;;;;5107701;27;40725;-69
2023/08/22 06:40:49;;;;;;;37.78;10.55;;;;;;;;;;5109556;27;41416;-69
2023/08/22 06:43:16;;;;;;;45.28;10.32;;;;;;;;;;5125293;27;42086;-70
2023/08/22 06:45:46;;;;;;;15.80;8.35;;;;;;;;;;5127273;27;40830;-73
2023/08/22 06:48:16;;;;;;;19.50;9.18;;;;;;;;;;5129532;27;41853;-71
2023/08/22 06:51:03;;;;;;;21.00;9.40;;;;;;;;;;5119685;27;41531;-73
2023/08/22 06:53:31;;;;;;;22.27;9.15;;;;;;;;;;5107726;27;41017;-67
2023/08/22 06:55:59;;;;;;;18.90;9.02;;;;;;;;;;5109466;27;41375;-68
2023/08/22 06:58:27;;;;;;;17.83;9.10;;;;;;;;;;5107663;27;43147;-68
2023/08/22 07:00:55;;;;;;;23.60;10.20;;;;;;;;;;5109047;27;41394;-68
2023/08/22 07:03:23;;;;;;;15.88;9.45;;;;;;;;;;5108952;27;42702;-67
2023/08/22 07:05:52;;;;;;;14.25;8.60;;;;;;;;;;5107504;27;40583;-67
2023/08/22 07:08:22;;;;;;;17.85;9.23;;;;;;;;;;5107667;27;41535;-72
2023/08/22 07:10:50;;;;;;;21.38;9.00;;;;;;;;;;5108305;27;42639;-73
2023/08/22 07:13:18;;;;;;;19.50;8.85;;;;;;;;;;5108330;27;41369;-73
2023/08/22 07:15:49;;;;;;;13.10;8.20;;;;;;;;;;5108618;27;41563;-73
2023/08/22 07:18:17;;;;;;;13.95;9.50;;;;;;;;;;5108608;27;40597;-73
2023/08/22 07:20:46;;;;;;;17.00;9.30;;;;;;;;;;5106979;27;41342;-74
2023/08/22 07:23:14;;;;;;;80.85;17.10;;;;;;;;;;5108329;27;42359;-70
2023/08/22 07:25:44;;;;;;;35.72;11.73;;;;;;;;;;5112583;27;42163;-71
2023/08/22 07:28:12;;;;;;;25.15;9.93;;;;;;;;;;5105635;28;42610;-71
2023/08/22 07:30:40;;;;;;;29.45;11.02;;;;;;;;;;5107656;27;41852;-74
2023/08/22 07:33:08;;;;;;;35.97;9.65;;;;;;;;;;5107473;28;40777;-71
2023/08/22 07:35:36;;;;;;;20.73;8.40;;;;;;;;;;5106629;27;42600;-71
2023/08/22 07:38:04;;;;;;;37.38;8.80;;;;;;;;;;5113141;27;41886;-72
2023/08/22 07:40:32;;;;;;;27.30;8.10;;;;;;;;;;5125581;27;41351;-73
2023/08/22 07:43:02;;;;;;;22.33;6.70;;;;;;;;;;5125357;27;41295;-73
2023/08/22 07:45:31;;;;;;;20.40;7.03;;;;;;;;;;5126118;27;42091;-72
2023/08/22 07:47:59;;;;;;;18.92;5.82;;;;;;;;;;5126975;27;41267;-72
2023/08/22 07:50:27;;;;;;;14.68;5.78;;;;;;;;;;5122539;27;42802;-72
2023/08/22 07:52:55;;;;;;;14.43;5.35;;;;;;;;;;5106839;27;41132;-72
2023/08/22 07:55:24;;;;;;;15.02;4.28;;;;;;;;;;5104998;27;42382;-72
2023/08/22 07:57:52;;;;;;;16.38;4.70;;;;;;;;;;5105424;27;43707;-72
2023/08/22 08:00:22;;;;;;;11.52;4.40;;;;;;;;;;5105620;27;41214;-72
2023/08/22 08:02:50;;;;;;;18.85;4.75;;;;;;;;;;5105236;27;41206;-72
2023/08/22 08:05:18;;;;;;;13.82;4.20;;;;;;;;;;5105568;27;41695;-72
2023/08/22 08:07:46;;;;;;;12.02;3.60;;;;;;;;;;5105765;27;40837;-72
2023/08/22 08:10:14;;;;;;;13.23;3.50;;;;;;;;;;5104935;27;42860;-72
2023/08/22 08:12:42;;;;;;;9.20;3.15;;;;;;;;;;5106408;27;41063;-72
2023/08/22 08:15:10;;;;;;;12.55;3.95;;;;;;;;;;5107879;27;41333;-72
2023/08/22 08:17:40;;;;;;;17.50;4.03;;;;;;;;;;5106425;27;42486;-72
2023/08/22 08:20:10;;;;;;;10.40;3.97;;;;;;;;;;5107368;27;40998;-72
2023/08/22 08:22:38;;;;;;;11.27;3.67;;;;;;;;;;5106906;27;42639;-73
2023/08/22 08:25:07;;;;;;;11.32;4.47;;;;;;;;;;5110446;27;43198;-72
2023/08/22 08:27:35;;;;;;;8.82;3.28;;;;;;;;;;5110508;27;40168;-72
2023/08/22 08:30:05;;;;;;;11.93;3.47;;;;;;;;;;5111136;27;40823;-72
2023/08/22 08:32:33;;;;;;;10.15;3.05;;;;;;;;;;5110928;27;39841;-72
2023/08/22 08:35:04;;;;;;;11.38;3.20;;;;;;;;;;5111427;27;41763;-72
2023/08/22 08:37:32;;;;;;;11.82;2.72;;;;;;;;;;5109041;27;41461;-73
2023/08/22 08:40:00;;;;;;;8.35;2.70;;;;;;;;;;5111482;27;40387;-72
2023/08/22 08:42:28;;;;;;;6.90;2.42;;;;;;;;;;5110183;27;41272;-72
2023/08/22 08:44:56;;;;;;;5.60;2.40;;;;;;;;;;5110116;27;42336;-73
2023/08/22 08:47:24;;;;;;;10.60;3.33;;;;;;;;;;5110905;27;40293;-72
2023/08/22 08:49:53;;;;;;;7.35;2.17;;;;;;;;;;5110470;27;41469;-72
2023/08/22 08:52:22;;;;;;;9.77;2.13;;;;;;;;;;5109875;27;42209;-72
2023/08/22 08:54:51;;;;;;;8.68;2.20;;;;;;;;;;5110664;27;41370;-72
2023/08/22 08:57:19;;;;;;;6.85;2.17;;;;;;;;;;5110749;27;43251;-73
2023/08/22 08:59:46;;;;;;;9.07;2.60;;;;;;;;;;5109775;27;40503;-73
2023/08/22 09:02:15;;;;;;;9.18;2.58;;;;;;;;;;5110992;27;41837;-72
2023/08/22 09:04:43;;;;;;;4.22;1.88;;;;;;;;;;5110578;27;42638;-72
2023/08/22 09:07:11;;;;;;;10.38;2.58;;;;;;;;;;5110142;27;41502;-72
2023/08/22 09:09:40;;;;;;;4.85;2.40;;;;;;;;;;5110194;27;42192;-72
2023/08/22 09:12:09;;;;;;;6.78;2.33;;;;;;;;;;5109453;27;42262;-72
2023/08/22 09:14:40;;;;;;;5.25;2.15;;;;;;;;;;5110392;27;41314;-72
2023/08/22 09:17:08;;;;;;;7.38;2.58;;;;;;;;;;5110660;27;42109;-72
2023/08/22 09:19:36;;;;;;;6.00;2.30;;;;;;;;;;5109038;27;39661;-73
2023/08/22 09:22:04;;;;;;;6.07;2.25;;;;;;;;;;5109704;27;41315;-72
2023/08/22 09:24:34;;;;;;;4.45;2.13;;;;;;;;;;5109428;27;42672;-73
2023/08/22 09:27:07;;;;;;;7.88;2.00;;;;;;;;;;5109647;27;40478;-73
2023/08/22 09:29:35;;;;;;;7.68;2.10;;;;;;;;;;5109815;27;42353;-72
2023/08/22 09:32:04;;;;;;;3.22;1.55;;;;;;;;;;5109927;27;43192;-73
2023/08/22 09:34:32;;;;;;;5.20;1.85;;;;;;;;;;5108301;27;41365;-73
2023/08/22 09:37:01;;;;;;;5.07;1.92;;;;;;;;;;5110583;27;42798;-73
2023/08/22 09:39:29;;;;;;;5.85;1.80;;;;;;;;;;5108892;27;41069;-72
2023/08/22 09:41:58;;;;;;;3.70;1.75;;;;;;;;;;5108742;27;42037;-73
2023/08/22 09:44:27;;;;;;;3.67;2.00;;;;;;;;;;5109829;27;43172;-72
2023/08/22 09:46:56;;;;;;;8.18;1.85;;;;;;;;;;5109785;27;40426;-73
2023/08/22 09:49:23;;;;;;;4.88;1.63;;;;;;;;;;5108245;27;42472;-73
2023/08/22 09:51:52;;;;;;;5.75;1.70;;;;;;;;;;5110005;27;42092;-73
2023/08/22 09:54:20;;;;;;;6.93;2.00;;;;;;;;;;5109237;27;40216;-72
2023/08/22 09:56:48;;;;;;;6.50;1.92;;;;;;;;;;5109626;27;42620;-73
2023/08/22 09:59:17;;;;;;;3.63;1.85;;;;;;;;;;5110079;27;33021;-73
2023/08/22 10:01:46;;;;;;;3.70;1.70;;;;;;;;;;5108419;27;41725;-73
2023/08/22 10:04:15;;;;;;;6.50;1.95;;;;;;;;;;5109647;27;42729;-73
2023/08/22 10:06:43;;;;;;;3.67;2.13;;;;;;;;;;5109218;27;41421;-73
2023/08/22 10:09:14;;;;;;;4.78;1.70;;;;;;;;;;5108939;27;41679;-73
2023/08/22 10:11:43;;;;;;;3.60;1.75;;;;;;;;;;5109262;27;42018;-73
2023/08/22 10:14:11;;;;;;;2.03;1.13;;;;;;;;;;5109773;27;40328;-73
2023/08/22 10:16:39;;;;;;;2.42;1.45;;;;;;;;;;5108399;27;41722;-72
2023/08/22 10:19:09;;;;;;;5.07;1.85;;;;;;;;;;5110307;27;41947;-73
2023/08/22 10:21:43;;;;;;;3.75;1.55;;;;;;;;;;5104913;28;44112;-73
2023/08/22 10:24:19;;;;;;;3.15;1.50;;;;;;;;;;5108481;27;42686;-73
2023/08/22 10:26:48;;;;;;;3.75;1.35;;;;;;;;;;5109165;27;40258;-73
2023/08/22 10:29:31;;;;;;;2.58;1.90;;;;;;;;;;5108021;27;41310;-73
2023/08/22 10:32:18;;;;;;;2.60;1.48;;;;;;;;;;5109232;27;42173;-73
2023/08/22 10:35:06;;;;;;;2.53;1.45;;;;;;;;;;5109266;27;41514;-73
2023/08/22 10:37:37;;;;;;;4.15;2.03;;;;;;;;;;5107795;27;41519;-73
2023/08/22 10:40:06;;;;;;;3.92;1.50;;;;;;;;;;5109639;27;43176;-73
2023/08/22 10:42:37;;;;;;;4.10;2.53;;;;;;;;;;5108927;27;41321;-74
2023/08/22 10:45:08;;;;;;;3.22;1.23;;;;;;;;;;5108227;27;42451;-73
2023/08/22 10:47:36;;;;;;;3.80;2.03;;;;;;;;;;5107804;27;40284;-73
2023/08/22 10:50:10;;;;;;;2.35;1.48;;;;;;;;;;5108978;27;42243;-73
2023/08/22 10:52:44;;;;;;;3.08;1.50;;;;;;;;;;5107242;27;43066;-73
2023/08/22 10:55:13;;;;;;;2.95;1.95;;;;;;;;;;5109067;27;40858;-74
2023/08/22 10:57:42;;;;;;;4.75;2.55;;;;;;;;;;5107651;27;42475;-73
2023/08/22 11:00:21;;;;;;;2.78;1.70;;;;;;;;;;5108837;27;42301;-73
2023/08/22 11:02:49;;;;;;;2.88;1.70;;;;;;;;;;5108235;27;41189;-73
2023/08/22 11:05:18;;;;;;;4.65;2.83;;;;;;;;;;5108229;27;41036;-73
2023/08/22 11:07:48;;;;;;;1.80;1.30;;;;;;;;;;5108196;27;40702;-73
2023/08/22 11:10:16;;;;;;;3.47;1.50;;;;;;;;;;5108472;27;41733;-73
2023/08/22 11:12:45;;;;;;;3.95;1.98;;;;;;;;;;5107263;27;42310;-73
2023/08/22 11:15:13;;;;;;;1.98;1.00;;;;;;;;;;5108504;27;40383;-73
2023/08/22 11:17:43;;;;;;;3.40;1.85;;;;;;;;;;5107844;27;42501;-73
2023/08/22 11:20:11;;;;;;;3.90;1.48;;;;;;;;;;5106904;27;43188;-74
2023/08/22 11:22:42;;;;;;;2.15;1.27;;;;;;;;;;5107376;27;40164;-73
2023/08/22 11:25:12;;;;;;;1.88;0.90;;;;;;;;;;5108680;27;41659;-73
2023/08/22 11:27:40;;;;;;;4.47;1.40;;;;;;;;;;5107541;27;42249;-73
2023/08/22 11:30:08;;;;;;;3.13;1.85;;;;;;;;;;5108721;27;41127;-73
2023/08/22 11:32:36;;;;;;;4.32;2.05;;;;;;;;;;5107424;27;42670;-72
2023/08/22 11:35:05;;;;;;;2.60;2.00;;;;;;;;;;5107950;27;40810;-73
2023/08/22 11:37:33;;;;;;;2.78;1.05;;;;;;;;;;5108205;27;42206;-73
2023/08/22 11:40:05;;;;;;;1.73;1.00;;;;;;;;;;5107774;27;42442;-72
2023/08/22 11:42:33;;;;;;;5.57;1.27;;;;;;;;;;5107300;27;41285;-73
2023/08/22 11:45:05;;;;;;;2.88;1.27;;;;;;;;;;5108217;27;39723;-72
2023/08/22 11:47:37;;;;;;;1.55;1.08;;;;;;;;;;5106732;27;42375;-73
2023/08/22 11:50:05;;;;;;;1.95;1.20;;;;;;;;;;5108600;27;40798;-72
2023/08/22 11:52:33;;;;;;;1.77;1.15;;;;;;;;;;5107610;27;43143;-73
2023/08/22 11:55:06;;;;;;;2.28;1.00;;;;;;;;;;5107334;27;40336;-72
2023/08/22 11:57:35;;;;;;;3.17;1.30;;;;;;;;;;5107144;27;41869;-72
2023/08/22 12:00:03;;;;;;;1.38;0.70;;;;;;;;;;5107671;27;42776;-72
2023/08/22 12:02:42;;;;;;;1.83;0.80;;;;;;;;;;5106724;28;40880;-72
2023/08/22 12:05:16;;;;;;;1.83;0.95;;;;;;;;;;5108288;27;41344;-72
2023/08/22 12:07:44;;;;;;;2.85;0.80;;;;;;;;;;5107273;27;41064;-72
2023/08/22 12:10:13;;;;;;;1.15;0.82;;;;;;;;;;5107095;27;41184;-72
2023/08/22 12:12:41;;;;;;;1.92;1.02;;;;;;;;;;5107339;27;42027;-73
2023/08/22 12:15:10;;;;;;;1.52;0.88;;;;;;;;;;5107255;27;40798;-72
2023/08/22 12:17:38;;;;;;;2.05;1.15;;;;;;;;;;5106917;27;42140;-72
2023/08/22 12:20:07;;;;;;;1.38;0.95;;;;;;;;;;5106975;27;42151;-72
2023/08/22 12:22:35;;;;;;;1.27;0.70;;;;;;;;;;5106036;27;40274;-72
2023/08/22 12:25:03;;;;;;;3.97;1.13;;;;;;;;;;5107881;27;41636;-72
2023/08/22 12:27:32;;;;;;;2.05;0.80;;;;;;;;;;5106821;27;42902;-72
2023/08/22 12:30:00;;;;;;;6.30;1.65;;;;;;;;;;5107060;27;40123;-72
2023/08/22 12:32:28;;;;;;;3.47;0.85;;;;;;;;;;5107226;27;42296;-71
2023/08/22 12:34:56;;;;;;;2.17;1.02;;;;;;;;;;5107207;27;40747;-72
2023/08/22 12:37:24;;;;;;;0.82;0.50;;;;;;;;;;5106976;27;41626;-72
2023/08/22 12:39:52;;;;;;;1.20;0.60;;;;;;;;;;5107448;27;42606;-72
2023/08/22 12:42:20;;;;;;;1.10;0.70;;;;;;;;;;5106999;27;40245;-72
2023/08/22 12:44:49;;;;;;;0.60;0.60;;;;;;;;;;5106502;27;41534;-72
2023/08/22 12:47:17;;;;;;;2.40;0.95;;;;;;;;;;5107225;27;42007;-72
2023/08/22 12:49:45;;;;;;;0.80;0.60;;;;;;;;;;5106786;27;40495;-72
2023/08/22 12:52:13;;;;;;;3.42;0.70;;;;;;;;;;5106695;27;42301;-71
2023/08/22 12:54:41;;;;;;;1.58;0.60;;;;;;;;;;5106881;27;42920;-72
2023/08/22 12:57:09;;;;;;;0.65;0.50;;;;;;;;;;5106733;27;42629;-72
2023/08/22 12:59:37;;;;;;;0.50;0.50;;;;;;;;;;5106490;27;43148;-72
2023/08/22 13:02:06;;;;;;;3.45;1.10;;;;;;;;;;5107468;27;41075;-72
2023/08/22 13:04:34;;;;;;;3.45;0.70;;;;;;;;;;5105938;27;41781;-72
2023/08/22 13:07:02;;;;;;;1.20;0.55;;;;;;;;;;5107313;27;41660;-72
2023/08/22 13:09:32;;;;;;;2.10;1.10;;;;;;;;;;5108152;27;40574;-72
2023/08/22 13:12:00;;;;;;;2.35;0.70;;;;;;;;;;5110324;27;42300;-72
2023/08/22 13:14:28;;;;;;;2.90;0.68;;;;;;;;;;5109366;27;41659;-72
2023/08/22 13:16:56;;;;;;;1.52;0.60;;;;;;;;;;5110796;27;40269;-72
2023/08/22 13:19:25;;;;;;;1.33;0.68;;;;;;;;;;5109349;27;42764;-73
2023/08/22 13:21:53;;;;;;;1.17;0.50;;;;;;;;;;5110380;27;40807;-72
2023/08/22 13:24:21;;;;;;;0.85;0.68;;;;;;;;;;5109673;27;41586;-73
2023/08/22 13:26:49;;;;;;;0.68;0.50;;;;;;;;;;5108742;27;42712;-73
2023/08/22 13:29:18;;;;;;;1.10;0.50;;;;;;;;;;5110382;27;20224;-72
2023/08/22 13:31:47;;;;;;;0.57;0.50;;;;;;;;;;5109608;27;41430;-73
2023/08/22 13:34:15;;;;;;;2.40;0.77;;;;;;;;;;5109038;27;42246;-72
2023/08/22 13:36:44;;;;;;;1.00;0.40;;;;;;;;;;5109740;27;40595;-72
2023/08/22 13:39:14;;;;;;;0.68;0.47;;;;;;;;;;5110107;27;41834;-73
2023/08/22 13:41:46;;;;;;;1.45;0.60;;;;;;;;;;5110125;27;40298;-72
2023/08/22 13:44:14;;;;;;;2.28;0.60;;;;;;;;;;5109984;27;42505;-72
2023/08/22 13:46:42;;;;;;;0.50;0.38;;;;;;;;;;5109141;27;42147;-72
2023/08/22 13:49:13;;;;;;;0.80;0.40;;;;;;;;;;5110024;27;41594;-72
2023/08/22 13:51:41;;;;;;;1.75;0.60;;;;;;;;;;5109679;27;42222;-72
2023/08/22 13:54:10;;;;;;;0.88;0.40;;;;;;;;;;5108881;27;42018;-72
2023/08/22 13:56:38;;;;;;;1.00;0.43;;;;;;;;;;5109616;27;41554;-72
2023/08/22 13:59:06;;;;;;;0.55;0.50;;;;;;;;;;5110473;27;42533;-72
2023/08/22 14:01:34;;;;;;;1.10;0.50;;;;;;;;;;5108592;27;41676;-72
2023/08/22 14:04:03;;;;;;;0.68;0.50;;;;;;;;;;5109993;27;41346;-73
2023/08/22 14:06:30;;;;;;;1.27;0.75;;;;;;;;;;5108711;27;43158;-72
2023/08/22 14:08:58;;;;;;;1.02;0.50;;;;;;;;;;5109245;27;40967;-72
2023/08/22 14:11:33;;;;;;;0.50;0.40;;;;;;;;;;5108990;27;41459;-73
2023/08/22 14:14:01;;;;;;;2.80;1.33;;;;;;;;;;5109764;27;42435;-73
2023/08/22 14:16:28;;;;;;;0.77;0.35;;;;;;;;;;5108301;27;40277;-72
2023/08/22 14:18:58;;;;;;;1.15;0.85;;;;;;;;;;5109200;27;42131;-73
2023/08/22 14:21:26;;;;;;;1.63;0.85;;;;;;;;;;5107648;27;43003;-73
2023/08/22 14:24:13;;;;;;;1.90;0.82;;;;;;;;;;5108876;27;41644;-73
2023/08/22 14:26:42;;;;;;;1.95;0.82;;;;;;;;;;5108908;27;42299;-73
2023/08/22 14:29:10;;;;;;;1.60;0.57;;;;;;;;;;5108429;27;41533;-73
2023/08/22 14:31:38;;;;;;;1.02;0.40;;;;;;;;;;5108284;27;42718;-74
2023/08/22 14:34:07;;;;;;;1.67;0.85;;;;;;;;;;5108788;27;43394;-73
2023/08/22 14:36:35;;;;;;;1.25;1.00;;;;;;;;;;5107265;27;41565;-73
2023/08/22 14:39:04;;;;;;;0.80;0.40;;;;;;;;;;5109059;27;41584;-73
2023/08/22 14:41:31;;;;;;;1.55;0.45;;;;;;;;;;5108802;27;42464;-73
2023/08/22 14:44:03;;;;;;;1.23;0.60;;;;;;;;;;5108340;27;41022;-73
2023/08/22 14:46:31;;;;;;;1.75;0.65;;;;;;;;;;5108463;27;42417;-73
2023/08/22 14:48:59;;;;;;;1.15;0.60;;;;;;;;;;5109490;27;41104;-73